• Join FlightAware (Why Join?)
  • Login
  • US Flag 
11:10PM EDT


 

Airport Tracker/Info


-or-


 

Live Flight TrackerFlight Track Log ✈ VH-UNU ✈ 15-May-2013 ✈ YSBK / BWU - YSBK / BWU

Flight Track Log - Related Links

Times and Time Zones

All times are in EDT time to prevent confusion due to time zone crossing. See the VH-UNU flight status page for this flight to view local times or setup timezone preferences in your user account.

Time Position Orientation Groundspeed Altitude Reporting Facility
EDT Latitude Longitude Course Direction KTS MPH feet Rate Location/Type
06:25AM -33.6981 151.3018 180° South 125 144 2,500  Level Aus ATC (RADAR)
06:25AM -33.7180 151.3019 180° South 123 142 2,500 -300 Level Aus ATC (RADAR)
06:26AM -33.7459 151.2921 196° South 126 145 2,100 -360 Descending Aus ATC (RADAR)
06:27AM -33.7581 151.2842 208° Southwest 119 137 2,100  Level Aus ATC (RADAR)
06:27AM -33.7680 151.2775 209° Southwest 100 115 2,100 60 Level Aus ATC (RADAR)
06:28AM -33.7802 151.2695 209° Southwest 85 98 2,200 60 Climbing Aus ATC (RADAR)
06:28AM -33.7967 151.2581 210° Southwest 84 97 2,200 -120 Level Aus ATC (RADAR)
06:29AM -33.8094 151.2495 210° Southwest 89 102 2,100 -120 Descending Aus ATC (RADAR)
06:30AM -33.8234 151.2388 212° Southwest 88 101 2,100  Level Aus ATC (RADAR)
06:30AM -33.8321 151.2320 213° Southwest 89 102 2,100 -120 Level Aus ATC (RADAR)
06:31AM -33.8440 151.2215 216° Southwest 91 105 2,000 60 Descending Aus ATC (RADAR)
06:32AM -33.8504 151.2332 124° Southeast 99 114 2,200 120 Climbing Aus ATC (RADAR)
06:32AM -33.8440 151.2251 314° West 79 91 2,200 -120 Level Aus ATC (RADAR)
06:33AM -33.8409 151.2102 284° West 80 92 2,100 -120 Descending Aus ATC (RADAR)
06:33AM -33.8355 151.1946 293° West 73 84 2,100 60 Level Aus ATC (RADAR)
06:34AM -33.8300 151.1816 297° West 73 84 2,200 60 Climbing Aus ATC (RADAR)
06:35AM -33.8242 151.1681 298° West 77 89 2,200  Level Aus ATC (RADAR)
06:35AM -33.8226 151.1525 277° West 78 90 2,200 -120 Level Aus ATC (RADAR)
06:36AM -33.8226 151.1359 270° West 82 94 2,100  Descending Aus ATC (RADAR)
06:37AM -33.8170 151.1034 282° West 74 85 2,200 60 Climbing Aus ATC (RADAR)
06:37AM -33.8146 151.0947 288° West 78 90 2,200  Level Aus ATC (RADAR)
06:41AM -33.7783 151.2081 261° West 2,100 -60 Descending Aus ATC (Calculated)
06:43AM -33.7873 151.1404 261° West  Level FlightAware Approximate
06:44AM -33.7922 151.1035 261° West  Level FlightAware Approximate
06:45AM -33.8173 151.0816 151° Southeast  Level Estimated
06:46AM -33.8425 151.0597 216° Southwest  Level FlightAware Approximate
06:46AM -33.7419 151.3214 242° Southwest 2,500  Level Aus ATC (Calculated)
06:47AM -33.8677 151.0378 216° Southwest  Level FlightAware Approximate
06:48AM -33.7668 151.2762 151° Southeast  Level Estimated
06:49AM -33.7839 151.2451 151° Southeast  Level Estimated
06:50AM -33.8010 151.2139 151° Southeast  Level Estimated
06:51AM -33.8181 151.1827 151° Southeast  Level Estimated
06:52AM -33.8353 151.1515 151° Southeast  Level Estimated
06:53AM -33.8523 151.1202 151° Southeast  Level Estimated
06:54AM -33.8694 151.0890 151° Southeast  Level Estimated
06:54AM -33.5408 151.1958 198° South 2,500  Level Aus ATC (Calculated)
06:55AM -33.8865 151.0578 151° Southeast  Level Estimated
06:56AM -33.5866 151.1711 151° Southeast  Level Estimated
06:57AM -33.6150 151.1559 151° Southeast  Level Estimated
06:58AM -33.6433 151.1406 151° Southeast  Level Estimated
06:59AM -33.6716 151.1253 151° Southeast  Level Estimated
07:00AM -33.7000 151.1100 151° Southeast  Level Estimated
07:01AM -33.7283 151.0947 151° Southeast  Level Estimated
07:02AM -33.7566 151.0793 151° Southeast  Level Estimated
07:03AM -33.7850 151.0640 151° Southeast  Level Estimated
07:04AM -33.8133 151.0487 151° Southeast  Level Estimated
07:05AM -33.8416 151.0333 151° Southeast  Level Estimated
07:06AM -33.8699 151.0179 151° Southeast  Level Estimated
07:06AM -33.8167 150.9167 139° Southeast  Level Aus ATC (Calculated)
07:07AM -33.8982 151.0026 151° Southeast  Level Estimated
07:08AM -33.8453 150.9357 151° Southeast  Level Estimated
07:09AM -33.8725 150.9537 151° Southeast  Level Estimated
07:09AM -33.8706 150.9525 151° Southeast  Level Aus ATC (Calculated)
07:11AM -33.9123 150.9802 151° Southeast  Level Estimated
07:12AM -33.9244 150.9884 151° Southeast  Level FlightAware Approximate
07:13AM -33.9244 150.9883 151° Southeast  Level Estimated
07:14AM -33.9244 150.9883 151° Southeast  Level Estimated
07:15AM -33.9244 150.9883 151° Southeast  Level Estimated
07:16AM -33.9244 150.9883 151° Southeast  Level Estimated
07:17AM -33.9244 150.9883 151° Southeast  Level Estimated